Mc Ewen, Tennessee
Current Conditions -  °F | °C
As of 7:19 AM on Sunday 23 Nov 2014 (Local Time) from KCKV Reporting Station
Overcast Overcast  
Wind Chill: 56°   Ceiling: 2900
Heat Index: 56°   Visibility: 10mi
Dew Point: 43°   Wind: 10mph
Humidity: 62%   Direction: 120°ESE
Pressure: 29.84"   Gusts: NA
Location:  36.1254°N, 87.6388°W
Report Text: KCKV 231319Z AUTO 12009KT 10SM BKN029 BKN038 OVC050 13/06 A2984 RMK AO2 T01330061 $
Loading
Personal Weather Stations






























Interactive Weather Map New forecast layout! Learn more

10-Day Weather Forecast

Advertisements
Track Severe Weather on mobile